createdAt,value
2022-08-24T05:31:32.279Z,99.90
2022-08-24T05:34:34.148Z,99.90
2022-08-24T05:37:37.827Z,99.90
2022-08-24T05:40:39.517Z,99.90
2022-08-24T05:43:41.585Z,99.90
2022-08-24T05:46:44.090Z,99.90
2022-08-24T05:49:46.096Z,99.90
2022-08-24T05:52:47.845Z,99.90
2022-08-24T05:55:50.335Z,99.90
2022-08-24T05:58:52.730Z,99.90
2022-08-24T06:01:54.502Z,99.90
2022-08-24T06:04:56.268Z,97.00
2022-08-24T06:07:58.280Z,96.30
2022-08-24T06:11:01.842Z,94.40
2022-08-24T06:50:12.698Z,99.90
2022-08-24T06:53:15.243Z,99.90
2022-08-24T06:56:18.102Z,99.90
2022-08-24T06:59:20.759Z,99.90
2022-08-24T07:02:22.826Z,99.90
2022-08-24T07:05:24.537Z,99.90
2022-08-24T07:08:26.500Z,99.90
2022-08-24T07:11:28.283Z,98.40
2022-08-24T07:14:30.187Z,96.70
2022-08-24T07:17:31.890Z,93.80
2022-08-24T07:20:33.916Z,91.20
2022-08-24T07:23:41.928Z,88.40
2022-08-24T07:26:44.406Z,85.20
2022-08-24T07:29:50.711Z,83.50
2022-08-24T07:33:01.757Z,84.80
2022-08-24T07:36:03.915Z,83.70
2022-08-24T07:39:08.093Z,82.30
2022-08-24T07:42:13.838Z,82.00
2022-08-24T07:45:16.832Z,81.70
2022-08-24T07:48:18.875Z,82.00
2022-08-24T07:51:20.749Z,80.40
2022-08-24T07:54:22.587Z,79.20
2022-08-24T07:57:24.971Z,80.40
2022-08-24T08:00:27.038Z,81.30
2022-08-24T08:03:29.957Z,80.50
2022-08-24T08:06:31.878Z,79.60
2022-08-24T08:09:36.763Z,76.70
2022-08-24T08:12:39.108Z,73.80
2022-08-24T08:15:41.454Z,72.30
2022-08-24T08:18:45.509Z,68.10
2022-08-24T08:22:11.127Z,64.30
2022-08-24T08:25:13.025Z,62.90
2022-08-24T08:28:25.663Z,61.40
2022-08-24T08:31:28.242Z,59.40
2022-08-24T08:34:31.508Z,58.80
2022-08-24T08:37:33.587Z,59.00
2022-08-24T08:40:55.550Z,57.50
2022-08-24T08:44:05.165Z,57.20
2022-08-24T08:47:46.926Z,57.30
2022-08-24T08:51:28.469Z,58.30
2022-08-24T08:55:01.105Z,56.70
2022-08-24T08:58:29.660Z,55.10
2022-08-24T09:02:01.682Z,54.40
2022-08-24T09:05:37.529Z,53.10
2022-08-24T09:08:52.037Z,52.40
2022-08-24T09:12:25.261Z,52.60
2022-08-24T09:16:10.447Z,53.40
2022-08-24T09:19:44.748Z,53.10
2022-08-24T09:22:48.289Z,53.10
2022-08-24T09:26:19.064Z,53.00
2022-08-24T09:29:49.514Z,51.60
2022-08-24T09:33:14.206Z,52.60
2022-08-24T09:36:31.170Z,52.50
2022-08-24T09:40:08.797Z,52.60
2022-08-24T09:43:45.818Z,51.50
2022-08-24T09:47:25.264Z,51.60
2022-08-24T09:51:00.167Z,51.60
2022-08-24T09:54:26.036Z,51.90
2022-08-24T09:58:01.499Z,52.20
2022-08-24T10:01:22.266Z,51.10
2022-08-24T10:04:50.765Z,50.60
2022-08-24T10:08:18.577Z,50.10
2022-08-24T10:11:58.072Z,49.70
2022-08-24T10:15:09.232Z,49.80
2022-08-24T10:18:41.495Z,49.80
2022-08-24T10:22:02.086Z,48.90
2022-08-24T10:25:37.396Z,48.80
2022-08-24T10:29:01.059Z,50.60
2022-08-24T10:32:42.799Z,51.00
2022-08-24T10:36:15.178Z,50.70
2022-08-24T10:40:01.834Z,48.60
2022-08-24T10:43:34.635Z,48.60
2022-08-24T10:46:48.580Z,48.90
2022-08-24T10:50:31.039Z,47.90
2022-08-24T10:53:34.504Z,47.90
2022-08-24T10:57:01.135Z,49.10
2022-08-24T11:00:22.576Z,49.50
2022-08-24T11:03:27.960Z,50.90
2022-08-24T11:06:40.459Z,50.80
2022-08-24T11:10:00.229Z,49.90
2022-08-24T11:13:23.801Z,48.70
2022-08-24T11:16:30.497Z,48.40
2022-08-24T11:19:35.099Z,47.90
2022-08-24T11:22:41.556Z,48.90
2022-08-24T11:25:56.264Z,49.30
2022-08-24T11:29:00.277Z,49.30
2022-08-24T11:32:01.982Z,49.30
2022-08-24T11:35:28.074Z,50.90
2022-08-24T11:38:34.880Z,50.70
2022-08-24T11:41:47.280Z,52.00
2022-08-24T11:44:59.061Z,51.60
2022-08-24T11:48:37.424Z,53.00
2022-08-24T11:52:05.017Z,51.90
2022-08-24T11:55:17.924Z,51.90
2022-08-24T11:58:49.059Z,53.50
2022-08-24T12:01:56.545Z,53.60
2022-08-24T12:05:09.604Z,54.50
2022-08-24T12:08:47.961Z,54.50
2022-08-24T12:12:18.908Z,54.90
2022-08-24T12:15:37.111Z,55.00
2022-08-24T12:19:02.673Z,55.10
2022-08-24T12:22:07.528Z,55.30
2022-08-24T12:25:32.012Z,56.10
2022-08-24T12:28:41.265Z,56.20
2022-08-24T12:31:49.260Z,55.90
2022-08-24T12:34:58.343Z,55.50
2022-08-24T12:38:12.053Z,55.80
2022-08-24T12:41:29.352Z,56.30
2022-08-24T12:44:42.517Z,56.70
2022-08-24T12:48:09.535Z,56.10
2022-08-24T12:51:51.845Z,56.00
2022-08-24T12:55:10.227Z,56.30
2022-08-24T12:58:54.374Z,56.40
2022-08-24T13:02:02.855Z,56.60
2022-08-24T13:05:15.303Z,56.90
2022-08-24T13:08:33.849Z,57.20
2022-08-24T13:11:36.002Z,57.30
2022-08-24T13:14:37.813Z,56.70
2022-08-24T13:17:42.137Z,57.10
2022-08-24T13:20:44.350Z,57.40
2022-08-24T13:23:46.201Z,57.40
2022-08-24T13:26:47.991Z,57.00
2022-08-24T13:29:54.675Z,56.40
2022-08-24T13:33:03.112Z,57.00
2022-08-24T13:36:32.520Z,56.70
2022-08-24T13:39:44.743Z,57.40
2022-08-24T13:43:10.136Z,57.80
2022-08-24T13:46:44.332Z,56.70
2022-08-24T13:50:01.986Z,57.50
2022-08-24T13:53:44.201Z,57.70
2022-08-24T13:57:22.194Z,57.70
2022-08-24T14:00:45.376Z,57.00
2022-08-24T14:04:18.253Z,57.60
2022-08-24T14:07:27.014Z,57.60
2022-08-24T14:10:53.806Z,57.30
2022-08-24T14:14:16.803Z,57.20
2022-08-24T14:17:58.361Z,56.90
2022-08-24T14:21:20.601Z,57.30
2022-08-24T14:24:27.172Z,56.80
2022-08-24T14:27:40.255Z,57.20
2022-08-24T14:30:44.706Z,57.30
2022-08-24T14:34:17.481Z,57.10
2022-08-24T14:37:26.277Z,56.60
2022-08-24T14:40:42.897Z,56.70
2022-08-24T14:44:25.156Z,56.50
2022-08-24T14:47:41.274Z,56.80
2022-08-24T14:50:58.596Z,53.00
2022-08-24T14:54:27.207Z,53.50
2022-08-24T14:57:48.397Z,54.70
2022-08-24T15:01:26.539Z,55.50
2022-08-24T15:04:39.150Z,56.10
2022-08-24T15:07:51.551Z,55.80
2022-08-24T15:11:00.383Z,54.40
2022-08-24T15:14:07.326Z,56.00
2022-08-24T15:17:13.961Z,56.40
2022-08-24T15:20:20.444Z,56.50
2022-08-24T15:24:02.028Z,56.40
2022-08-24T15:27:43.261Z,56.50
2022-08-24T15:30:57.725Z,56.60
2022-08-24T15:34:03.304Z,56.60
2022-08-24T15:37:06.427Z,57.00
2022-08-24T15:40:29.974Z,57.20
2022-08-24T15:43:34.322Z,56.90
2022-08-24T15:46:40.818Z,57.00
2022-08-24T15:49:50.620Z,57.20
2022-08-24T15:53:21.289Z,57.40
2022-08-24T15:56:35.296Z,57.20
2022-08-24T15:59:41.174Z,57.50
